AirNav   Air Wisconsin Up To $57,000 Bonus
 
 636 users online  

04NE Mc Connell Field Airport
Sarben, Nebraska, USA

GOING TO SARBEN?


FAA INFORMATION EFFECTIVE 03 NOVEMBER 2022

Location

FAA Identifier: 04NE
Lat/Long: 41-09-35.9760N 101-17-56.5890W
41-09.599600N 101-17.943150W
41.1599933,-101.2990525
(estimated)
Elevation: 3035 ft. / 925 m (estimated)
Variation: 09E (1985)
From city: 1 mile ESE of SARBEN, NE
Time zone: UTC -7 (UTC -6 during Daylight Saving Time)
Zip code: 69155

Airport Operations

Airport use: Private use. Permission required prior to landing
Activation date: 03/1979
Control tower: no
ARTCC: DENVER CENTER
FSS: COLUMBUS FLIGHT SERVICE STATION
NEBRASKA ONLY.
Attendance: IREG
Wind indicator: yes
Segmented circle: no

Nearby radio navigation aids

VOR radial/distance  VOR name  Freq  Var
SAEr077/21.7SEARLE VOR/DME110.2007E
LBFr274/25.8NORTH PLATTE VOR/DME117.4011E

 
NDB name  Hdg/Dist  Freq  Var  ID
GRANT039/26.135909EGGF --. --. ..-.

Airport Services

Runway Information

Runway N/S

Dimensions: 2500 x 100 ft. / 762 x 30 m
Surface: turf
RUNWAY N  RUNWAY S
Traffic pattern: leftleft
Obstructions: 200 ft. hills, 1000 ft. from runway20 ft. pline, 100 ft. from runway

Airport Ownership and Management from official FAA records

Ownership: Privately-owned
Owner: MARK MC CONNELL
2330 RD EAST 120
SUTHERLAND, NE 69165
Phone 308-239-4318
Manager: MARK MC CONNELL
2330 RD EAST 120
SUTHERLAND, NE 69165
Phone 308-239-4318

Airport Operational Statistics

Aircraft based on the field: 1
Single engine airplanes: 1
    

Additional Remarks

FOR CD CTC DENVER ARTCC AT 303-651-4257.

Instrument Procedures

There are no published instrument procedures at 04NE.

Some nearby airports with instrument procedures:

KOGA - Searle Field Airport (21 nm W)
KGGF - Grant Municipal Airport (26 nm SW)
KLBF - North Platte Regional Airport/Lee Bird Field (28 nm E)
KIML - Imperial Municipal Airport (42 nm S)
47V - Curtis Municipal Airport (49 nm SE)
 
Loc | Ops | Rwys | IFR | FBO | Links
Com | Nav | Svcs | Stats | Notes
Area around 04NE (Mc Connell Field Airport)
 
Road maps at: MapQuest Bing Google
 
Aerial photo
No photo
 
Sectional chart

 
Airport distance calculator
Flying to Mc Connell Field Airport? Find the distance to fly.

From to 04NE

Sunrise and sunset
Times for 27-Nov-2022
 Local
(UTC-7)
 Zulu
(UTC)
Morning civil twilight06:1813:18
Sunrise06:4813:48
Sunset16:1823:18
Evening civil twilight16:4823:48

Current date and time
Zulu (UTC)  27-Nov-2022 12:27:18
Local (UTC-7)  27-Nov-2022 05:27:18
 
METAR
KOGA 
23nm W 
271215Z AUTO 27003KT 10SM BKN100 00/M04 A2996 RMK AO2 T10041044
KGGF 
26nm SW 
271215Z AUTO 32008KT 10SM OVC100 M02/M06 A2995 RMK AO2
KLBF 
29nm E 
271153Z AUTO 29007KT 10SM CLR M03/M07 A2995 RMK AO2 SLP152 T10331067 10022 21033 53003
KIML 
41nm S 
271153Z AUTO 10SM FEW090 M01/M07 A2996 RMK AO2 SLP158 7//// T10111067 10011 21017 51003 $
TAF
KLBF 
29nm E 
271146Z 2712/2812 31008KT P6SM SCT120 SCT250 FM272000 25007KT P6SM SCT250 FM280000 17006KT P6SM SCT250
NOTAMs
Click for the latest NOTAMs
NOTAMs are issued by the DoD/FAA and will open in a separate window not controlled by AirNav.

 

 
 

Would you like to see your business listed on this page?

 If your business provides an interesting product or service to pilots, flight crews, aircraft, or users of the Mc Connell Field Airport, you should consider listing it here.  To start the listing process, click on the button below
 
Add a business
 

Other Pages about Mc Connell Field Airport

Update a link
 
Copyright © AirNav, LLC. All rights reserved. Privacy Policy  Contact